sensor_id;sensor_type;location;lat;lon;timestamp;P1;durP1;ratioP1;P2;durP2;ratioP2
48122;SDS011;33907;47.426;18.906;2023-04-03T00:01:09;16.12;;;8.98;;
48122;SDS011;33907;47.426;18.906;2023-04-03T00:03:37;10.38;;;8.30;;
48122;SDS011;33907;47.426;18.906;2023-04-03T00:06:05;10.63;;;8.00;;
48122;SDS011;33907;47.426;18.906;2023-04-03T00:08:34;10.90;;;8.32;;
48122;SDS011;33907;47.426;18.906;2023-04-03T00:11:02;10.85;;;8.18;;
48122;SDS011;33907;47.426;18.906;2023-04-03T00:13:30;10.32;;;7.90;;
48122;SDS011;33907;47.426;18.906;2023-04-03T00:15:58;9.80;;;7.50;;
48122;SDS011;33907;47.426;18.906;2023-04-03T00:18:26;9.52;;;7.35;;
48122;SDS011;33907;47.426;18.906;2023-04-03T00:20:54;10.10;;;7.85;;
48122;SDS011;33907;47.426;18.906;2023-04-03T00:23:21;10.60;;;8.00;;
48122;SDS011;33907;47.426;18.906;2023-04-03T00:25:51;9.80;;;7.57;;
48122;SDS011;33907;47.426;18.906;2023-04-03T00:28:19;10.10;;;7.37;;
48122;SDS011;33907;47.426;18.906;2023-04-03T00:30:50;9.45;;;7.03;;
48122;SDS011;33907;47.426;18.906;2023-04-03T00:33:18;9.95;;;7.25;;
48122;SDS011;33907;47.426;18.906;2023-04-03T00:35:48;9.70;;;7.25;;
48122;SDS011;33907;47.426;18.906;2023-04-03T00:38:16;9.70;;;7.28;;
48122;SDS011;33907;47.426;18.906;2023-04-03T00:40:46;9.88;;;7.37;;
48122;SDS011;33907;47.426;18.906;2023-04-03T00:43:21;9.57;;;7.72;;
48122;SDS011;33907;47.426;18.906;2023-04-03T00:45:51;9.63;;;7.12;;
48122;SDS011;33907;47.426;18.906;2023-04-03T00:48:21;9.30;;;7.20;;
48122;SDS011;33907;47.426;18.906;2023-04-03T00:50:52;8.90;;;6.40;;
48122;SDS011;33907;47.426;18.906;2023-04-03T00:53:22;9.07;;;6.35;;
48122;SDS011;33907;47.426;18.906;2023-04-03T00:55:52;9.65;;;7.12;;
48122;SDS011;33907;47.426;18.906;2023-04-03T00:58:21;8.55;;;6.15;;
48122;SDS011;33907;47.426;18.906;2023-04-03T01:00:54;8.57;;;6.55;;
48122;SDS011;33907;47.426;18.906;2023-04-03T01:03:24;8.55;;;6.62;;
48122;SDS011;33907;47.426;18.906;2023-04-03T01:05:52;8.25;;;6.12;;
48122;SDS011;33907;47.426;18.906;2023-04-03T01:08:20;8.70;;;6.10;;
48122;SDS011;33907;47.426;18.906;2023-04-03T01:10:48;7.05;;;5.70;;
48122;SDS011;33907;47.426;18.906;2023-04-03T01:13:18;9.30;;;6.47;;
48122;SDS011;33907;47.426;18.906;2023-04-03T01:15:48;7.93;;;5.93;;
48122;SDS011;33907;47.426;18.906;2023-04-03T01:18:15;7.60;;;5.65;;
48122;SDS011;33907;47.426;18.906;2023-04-03T01:23:33;8.27;;;5.45;;
48122;SDS011;33907;47.426;18.906;2023-04-03T01:26:03;7.22;;;5.15;;
48122;SDS011;33907;47.426;18.906;2023-04-03T01:28:32;8.15;;;6.07;;
48122;SDS011;33907;47.426;18.906;2023-04-03T01:31:05;7.43;;;5.60;;
48122;SDS011;33907;47.426;18.906;2023-04-03T01:33:53;7.45;;;5.95;;
48122;SDS011;33907;47.426;18.906;2023-04-03T01:36:27;7.55;;;6.18;;
48122;SDS011;33907;47.426;18.906;2023-04-03T01:38:58;9.50;;;6.03;;
48122;SDS011;33907;47.426;18.906;2023-04-03T01:41:26;8.25;;;6.03;;
48122;SDS011;33907;47.426;18.906;2023-04-03T01:43:55;7.97;;;5.60;;
48122;SDS011;33907;47.426;18.906;2023-04-03T01:46:24;7.50;;;5.35;;
48122;SDS011;33907;47.426;18.906;2023-04-03T01:48:51;7.30;;;4.90;;
48122;SDS011;33907;47.426;18.906;2023-04-03T01:51:19;6.93;;;4.85;;
48122;SDS011;33907;47.426;18.906;2023-04-03T01:53:47;7.43;;;4.65;;
48122;SDS011;33907;47.426;18.906;2023-04-03T01:56:14;8.30;;;4.78;;
48122;SDS011;33907;47.426;18.906;2023-04-03T01:58:42;7.18;;;5.07;;
48122;SDS011;33907;47.426;18.906;2023-04-03T02:01:10;6.95;;;4.95;;
48122;SDS011;33907;47.426;18.906;2023-04-03T02:03:38;7.43;;;5.18;;
48122;SDS011;33907;47.426;18.906;2023-04-03T02:06:05;7.85;;;5.45;;
48122;SDS011;33907;47.426;18.906;2023-04-03T02:08:33;6.93;;;5.05;;
48122;SDS011;33907;47.426;18.906;2023-04-03T02:11:00;7.95;;;5.32;;
48122;SDS011;33907;47.426;18.906;2023-04-03T02:13:28;8.48;;;4.70;;
48122;SDS011;33907;47.426;18.906;2023-04-03T02:15:55;6.95;;;4.85;;
48122;SDS011;33907;47.426;18.906;2023-04-03T02:18:23;7.30;;;5.53;;
48122;SDS011;33907;47.426;18.906;2023-04-03T02:20:50;6.45;;;5.12;;
48122;SDS011;33907;47.426;18.906;2023-04-03T02:23:18;8.90;;;6.10;;
48122;SDS011;33907;47.426;18.906;2023-04-03T02:25:45;7.07;;;5.65;;
48122;SDS011;33907;47.426;18.906;2023-04-03T02:28:13;8.07;;;5.20;;
48122;SDS011;33907;47.426;18.906;2023-04-03T02:30:40;8.32;;;6.10;;
48122;SDS011;33907;47.426;18.906;2023-04-03T02:33:08;6.85;;;4.90;;
48122;SDS011;33907;47.426;18.906;2023-04-03T02:35:36;8.10;;;6.25;;
48122;SDS011;33907;47.426;18.906;2023-04-03T02:38:04;8.23;;;6.07;;
48122;SDS011;33907;47.426;18.906;2023-04-03T02:40:32;8.73;;;6.15;;
48122;SDS011;33907;47.426;18.906;2023-04-03T02:43:00;7.45;;;5.47;;
48122;SDS011;33907;47.426;18.906;2023-04-03T02:45:30;9.13;;;6.15;;
48122;SDS011;33907;47.426;18.906;2023-04-03T02:47:57;8.35;;;5.68;;
48122;SDS011;33907;47.426;18.906;2023-04-03T02:50:25;9.23;;;5.68;;
48122;SDS011;33907;47.426;18.906;2023-04-03T02:52:52;8.52;;;6.72;;
48122;SDS011;33907;47.426;18.906;2023-04-03T02:55:21;8.63;;;6.15;;
48122;SDS011;33907;47.426;18.906;2023-04-03T02:57:49;9.05;;;7.10;;
48122;SDS011;33907;47.426;18.906;2023-04-03T03:00:17;10.20;;;6.93;;
48122;SDS011;33907;47.426;18.906;2023-04-03T03:02:45;9.05;;;5.85;;
48122;SDS011;33907;47.426;18.906;2023-04-03T03:05:13;8.45;;;5.80;;
48122;SDS011;33907;47.426;18.906;2023-04-03T03:07:40;8.05;;;6.00;;
48122;SDS011;33907;47.426;18.906;2023-04-03T03:10:08;10.65;;;6.82;;
48122;SDS011;33907;47.426;18.906;2023-04-03T03:12:36;9.25;;;6.78;;
48122;SDS011;33907;47.426;18.906;2023-04-03T03:15:03;9.35;;;6.45;;
48122;SDS011;33907;47.426;18.906;2023-04-03T03:17:31;9.55;;;6.10;;
48122;SDS011;33907;47.426;18.906;2023-04-03T03:19:59;9.75;;;7.15;;
48122;SDS011;33907;47.426;18.906;2023-04-03T03:22:27;9.90;;;6.40;;
48122;SDS011;33907;47.426;18.906;2023-04-03T03:24:59;9.15;;;6.30;;
48122;SDS011;33907;47.426;18.906;2023-04-03T03:27:28;8.27;;;5.65;;
48122;SDS011;33907;47.426;18.906;2023-04-03T03:29:55;9.88;;;6.87;;
48122;SDS011;33907;47.426;18.906;2023-04-03T03:32:23;11.27;;;7.03;;
48122;SDS011;33907;47.426;18.906;2023-04-03T03:34:50;8.93;;;6.10;;
48122;SDS011;33907;47.426;18.906;2023-04-03T03:37:18;9.15;;;5.72;;
48122;SDS011;33907;47.426;18.906;2023-04-03T03:39:46;9.05;;;6.45;;
48122;SDS011;33907;47.426;18.906;2023-04-03T03:42:13;9.18;;;5.97;;
48122;SDS011;33907;47.426;18.906;2023-04-03T03:44:40;8.68;;;6.50;;
48122;SDS011;33907;47.426;18.906;2023-04-03T03:47:08;8.70;;;6.65;;
48122;SDS011;33907;47.426;18.906;2023-04-03T03:49:38;9.73;;;6.15;;
48122;SDS011;33907;47.426;18.906;2023-04-03T03:52:11;9.52;;;6.62;;
48122;SDS011;33907;47.426;18.906;2023-04-03T03:54:39;9.65;;;7.03;;
48122;SDS011;33907;47.426;18.906;2023-04-03T03:57:06;9.10;;;6.78;;
48122;SDS011;33907;47.426;18.906;2023-04-03T03:59:34;9.50;;;5.87;;
48122;SDS011;33907;47.426;18.906;2023-04-03T04:02:02;10.35;;;6.80;;
48122;SDS011;33907;47.426;18.906;2023-04-03T04:04:30;9.73;;;6.28;;
48122;SDS011;33907;47.426;18.906;2023-04-03T04:06:57;9.57;;;6.55;;
48122;SDS011;33907;47.426;18.906;2023-04-03T04:09:25;12.05;;;5.68;;
48122;SDS011;33907;47.426;18.906;2023-04-03T04:11:53;10.88;;;6.18;;
48122;SDS011;33907;47.426;18.906;2023-04-03T04:14:21;9.55;;;6.18;;
48122;SDS011;33907;47.426;18.906;2023-04-03T04:16:49;9.77;;;6.30;;
48122;SDS011;33907;47.426;18.906;2023-04-03T04:19:18;9.45;;;6.10;;
48122;SDS011;33907;47.426;18.906;2023-04-03T04:21:46;9.95;;;6.85;;
48122;SDS011;33907;47.426;18.906;2023-04-03T04:24:13;9.95;;;6.65;;
48122;SDS011;33907;47.426;18.906;2023-04-03T04:26:41;9.32;;;6.62;;
48122;SDS011;33907;47.426;18.906;2023-04-03T04:29:09;9.15;;;6.35;;
48122;SDS011;33907;47.426;18.906;2023-04-03T04:31:37;10.85;;;6.78;;
48122;SDS011;33907;47.426;18.906;2023-04-03T04:34:05;10.68;;;6.10;;
48122;SDS011;33907;47.426;18.906;2023-04-03T04:36:33;11.35;;;6.65;;
48122;SDS011;33907;47.426;18.906;2023-04-03T04:39:01;9.48;;;6.53;;
48122;SDS011;33907;47.426;18.906;2023-04-03T04:41:29;10.75;;;6.57;;
48122;SDS011;33907;47.426;18.906;2023-04-03T04:43:57;9.27;;;5.85;;
48122;SDS011;33907;47.426;18.906;2023-04-03T04:46:25;9.02;;;6.70;;
48122;SDS011;33907;47.426;18.906;2023-04-03T04:48:53;9.32;;;5.82;;
48122;SDS011;33907;47.426;18.906;2023-04-03T04:51:21;9.13;;;6.68;;
48122;SDS011;33907;47.426;18.906;2023-04-03T04:53:49;10.45;;;6.05;;
48122;SDS011;33907;47.426;18.906;2023-04-03T04:56:17;9.77;;;5.90;;
48122;SDS011;33907;47.426;18.906;2023-04-03T04:58:45;8.15;;;5.50;;
48122;SDS011;33907;47.426;18.906;2023-04-03T05:01:15;9.88;;;6.62;;
48122;SDS011;33907;47.426;18.906;2023-04-03T05:03:43;9.13;;;5.72;;
48122;SDS011;33907;47.426;18.906;2023-04-03T05:06:11;10.35;;;6.05;;
48122;SDS011;33907;47.426;18.906;2023-04-03T05:08:38;10.40;;;6.10;;
48122;SDS011;33907;47.426;18.906;2023-04-03T05:11:06;8.20;;;5.75;;
48122;SDS011;33907;47.426;18.906;2023-04-03T05:13:34;8.73;;;5.90;;
48122;SDS011;33907;47.426;18.906;2023-04-03T05:16:01;7.93;;;5.28;;
48122;SDS011;33907;47.426;18.906;2023-04-03T05:18:30;9.05;;;5.97;;
48122;SDS011;33907;47.426;18.906;2023-04-03T05:20:57;8.40;;;5.72;;
48122;SDS011;33907;47.426;18.906;2023-04-03T05:23:26;9.20;;;6.03;;
48122;SDS011;33907;47.426;18.906;2023-04-03T05:25:55;9.05;;;5.90;;
48122;SDS011;33907;47.426;18.906;2023-04-03T05:28:22;9.40;;;6.03;;
48122;SDS011;33907;47.426;18.906;2023-04-03T05:30:53;8.95;;;5.80;;
48122;SDS011;33907;47.426;18.906;2023-04-03T05:33:23;8.13;;;5.15;;
48122;SDS011;33907;47.426;18.906;2023-04-03T05:35:52;7.70;;;6.15;;
48122;SDS011;33907;47.426;18.906;2023-04-03T05:38:23;9.13;;;5.68;;
48122;SDS011;33907;47.426;18.906;2023-04-03T05:40:51;9.57;;;6.00;;
48122;SDS011;33907;47.426;18.906;2023-04-03T05:43:18;7.97;;;5.30;;
48122;SDS011;33907;47.426;18.906;2023-04-03T05:45:47;9.45;;;5.82;;
48122;SDS011;33907;47.426;18.906;2023-04-03T05:48:14;9.40;;;6.43;;
48122;SDS011;33907;47.426;18.906;2023-04-03T05:50:42;9.02;;;6.55;;
48122;SDS011;33907;47.426;18.906;2023-04-03T05:53:22;13.75;;;9.63;;
48122;SDS011;33907;47.426;18.906;2023-04-03T05:55:53;14.77;;;9.82;;
48122;SDS011;33907;47.426;18.906;2023-04-03T05:58:21;13.90;;;9.40;;
48122;SDS011;33907;47.426;18.906;2023-04-03T06:00:49;10.85;;;6.55;;
48122;SDS011;33907;47.426;18.906;2023-04-03T06:03:17;9.32;;;5.57;;
48122;SDS011;33907;47.426;18.906;2023-04-03T06:05:44;9.20;;;5.97;;
48122;SDS011;33907;47.426;18.906;2023-04-03T06:08:13;8.48;;;5.57;;
48122;SDS011;33907;47.426;18.906;2023-04-03T06:10:41;8.43;;;5.37;;
48122;SDS011;33907;47.426;18.906;2023-04-03T06:13:09;8.52;;;5.80;;
48122;SDS011;33907;47.426;18.906;2023-04-03T06:15:36;8.55;;;6.10;;
48122;SDS011;33907;47.426;18.906;2023-04-03T06:18:08;7.37;;;5.07;;
48122;SDS011;33907;47.426;18.906;2023-04-03T06:20:36;7.15;;;5.40;;
48122;SDS011;33907;47.426;18.906;2023-04-03T06:23:04;8.30;;;5.62;;
48122;SDS011;33907;47.426;18.906;2023-04-03T06:25:34;8.13;;;5.12;;
48122;SDS011;33907;47.426;18.906;2023-04-03T06:28:02;8.15;;;5.43;;
48122;SDS011;33907;47.426;18.906;2023-04-03T06:30:29;9.32;;;5.57;;
48122;SDS011;33907;47.426;18.906;2023-04-03T06:32:58;7.62;;;5.30;;
48122;SDS011;33907;47.426;18.906;2023-04-03T06:35:26;8.52;;;5.45;;
48122;SDS011;33907;47.426;18.906;2023-04-03T06:37:56;7.55;;;4.75;;
48122;SDS011;33907;47.426;18.906;2023-04-03T06:40:24;7.70;;;5.80;;
48122;SDS011;33907;47.426;18.906;2023-04-03T06:42:53;7.15;;;4.93;;
48122;SDS011;33907;47.426;18.906;2023-04-03T06:45:21;7.62;;;5.30;;
48122;SDS011;33907;47.426;18.906;2023-04-03T06:47:49;7.75;;;5.72;;
48122;SDS011;33907;47.426;18.906;2023-04-03T06:50:17;7.85;;;5.00;;
48122;SDS011;33907;47.426;18.906;2023-04-03T06:52:44;9.45;;;5.85;;
48122;SDS011;33907;47.426;18.906;2023-04-03T06:55:12;7.82;;;4.72;;
48122;SDS011;33907;47.426;18.906;2023-04-03T06:57:39;7.72;;;5.43;;
48122;SDS011;33907;47.426;18.906;2023-04-03T07:00:07;8.07;;;5.70;;
48122;SDS011;33907;47.426;18.906;2023-04-03T07:02:36;8.30;;;4.82;;
48122;SDS011;33907;47.426;18.906;2023-04-03T07:05:04;7.25;;;4.93;;
48122;SDS011;33907;47.426;18.906;2023-04-03T07:07:32;6.82;;;4.25;;
48122;SDS011;33907;47.426;18.906;2023-04-03T07:10:01;7.15;;;4.65;;
48122;SDS011;33907;47.426;18.906;2023-04-03T07:12:29;6.82;;;4.12;;
48122;SDS011;33907;47.426;18.906;2023-04-03T07:14:56;6.47;;;4.03;;
48122;SDS011;33907;47.426;18.906;2023-04-03T07:17:24;7.75;;;4.25;;
48122;SDS011;33907;47.426;18.906;2023-04-03T07:19:52;6.22;;;3.95;;
48122;SDS011;33907;47.426;18.906;2023-04-03T07:22:20;6.57;;;4.50;;
48122;SDS011;33907;47.426;18.906;2023-04-03T07:24:47;5.97;;;3.72;;
48122;SDS011;33907;47.426;18.906;2023-04-03T07:27:15;5.85;;;4.07;;
48122;SDS011;33907;47.426;18.906;2023-04-03T07:29:43;9.77;;;4.43;;
48122;SDS011;33907;47.426;18.906;2023-04-03T07:32:11;5.30;;;3.37;;
48122;SDS011;33907;47.426;18.906;2023-04-03T07:34:38;5.82;;;3.40;;
48122;SDS011;33907;47.426;18.906;2023-04-03T07:37:06;5.85;;;3.58;;
48122;SDS011;33907;47.426;18.906;2023-04-03T07:39:36;5.90;;;3.10;;
48122;SDS011;33907;47.426;18.906;2023-04-03T07:42:03;6.65;;;3.62;;
48122;SDS011;33907;47.426;18.906;2023-04-03T07:44:31;5.80;;;3.53;;
48122;SDS011;33907;47.426;18.906;2023-04-03T07:46:59;7.10;;;3.55;;
48122;SDS011;33907;47.426;18.906;2023-04-03T08:21:35;5.93;;;3.03;;
48122;SDS011;33907;47.426;18.906;2023-04-03T08:24:04;5.43;;;2.53;;
48122;SDS011;33907;47.426;18.906;2023-04-03T08:26:31;5.22;;;2.67;;
48122;SDS011;33907;47.426;18.906;2023-04-03T08:28:59;8.25;;;3.33;;
48122;SDS011;33907;47.426;18.906;2023-04-03T08:31:26;6.68;;;2.72;;
48122;SDS011;33907;47.426;18.906;2023-04-03T08:33:56;4.57;;;2.50;;
48122;SDS011;33907;47.426;18.906;2023-04-03T08:36:24;4.57;;;2.53;;
48122;SDS011;33907;47.426;18.906;2023-04-03T08:38:54;4.20;;;2.70;;
48122;SDS011;33907;47.426;18.906;2023-04-03T08:49:28;3.70;;;1.90;;
48122;SDS011;33907;47.426;18.906;2023-04-03T08:51:59;3.62;;;1.98;;
48122;SDS011;33907;47.426;18.906;2023-04-03T08:54:32;3.78;;;1.80;;
48122;SDS011;33907;47.426;18.906;2023-04-03T08:57:02;4.28;;;2.05;;
48122;SDS011;33907;47.426;18.906;2023-04-03T08:59:35;5.10;;;2.37;;
48122;SDS011;33907;47.426;18.906;2023-04-03T09:02:13;4.40;;;2.22;;
48122;SDS011;33907;47.426;18.906;2023-04-03T09:05:14;4.97;;;1.98;;
48122;SDS011;33907;47.426;18.906;2023-04-03T09:07:56;3.95;;;2.00;;
48122;SDS011;33907;47.426;18.906;2023-04-03T09:10:27;4.40;;;2.03;;
48122;SDS011;33907;47.426;18.906;2023-04-03T09:15:51;3.97;;;2.00;;
48122;SDS011;33907;47.426;18.906;2023-04-03T09:18:21;4.85;;;2.30;;
48122;SDS011;33907;47.426;18.906;2023-04-03T09:20:57;5.57;;;1.90;;
48122;SDS011;33907;47.426;18.906;2023-04-03T09:23:49;4.07;;;1.92;;
48122;SDS011;33907;47.426;18.906;2023-04-03T09:26:24;4.12;;;1.80;;
48122;SDS011;33907;47.426;18.906;2023-04-03T09:28:54;5.07;;;2.50;;
48122;SDS011;33907;47.426;18.906;2023-04-03T09:31:25;4.55;;;2.25;;
48122;SDS011;33907;47.426;18.906;2023-04-03T09:33:56;4.55;;;2.03;;
48122;SDS011;33907;47.426;18.906;2023-04-03T09:36:40;3.92;;;1.80;;
48122;SDS011;33907;47.426;18.906;2023-04-03T09:39:14;3.80;;;1.77;;
48122;SDS011;33907;47.426;18.906;2023-04-03T09:44:25;5.22;;;1.80;;
48122;SDS011;33907;47.426;18.906;2023-04-03T09:46:54;4.15;;;1.83;;
48122;SDS011;33907;47.426;18.906;2023-04-03T09:49:21;4.57;;;1.80;;
48122;SDS011;33907;47.426;18.906;2023-04-03T09:51:49;3.85;;;1.42;;
48122;SDS011;33907;47.426;18.906;2023-04-03T09:56:54;5.25;;;1.73;;
48122;SDS011;33907;47.426;18.906;2023-04-03T09:59:31;3.33;;;1.20;;
48122;SDS011;33907;47.426;18.906;2023-04-03T10:01:59;2.37;;;1.20;;
48122;SDS011;33907;47.426;18.906;2023-04-03T10:04:39;3.60;;;1.45;;
48122;SDS011;33907;47.426;18.906;2023-04-03T10:07:27;4.20;;;1.60;;
48122;SDS011;33907;47.426;18.906;2023-04-03T10:10:10;4.65;;;2.10;;
48122;SDS011;33907;47.426;18.906;2023-04-03T10:12:46;3.17;;;1.37;;
48122;SDS011;33907;47.426;18.906;2023-04-03T10:15:15;3.12;;;1.37;;
48122;SDS011;33907;47.426;18.906;2023-04-03T10:17:51;2.92;;;1.27;;
48122;SDS011;33907;47.426;18.906;2023-04-03T10:20:32;3.75;;;1.60;;
48122;SDS011;33907;47.426;18.906;2023-04-03T10:23:15;1.75;;;0.93;;
48122;SDS011;33907;47.426;18.906;2023-04-03T10:31:25;3.30;;;1.23;;
48122;SDS011;33907;47.426;18.906;2023-04-03T10:34:18;7.90;;;2.28;;
48122;SDS011;33907;47.426;18.906;2023-04-03T10:42:42;4.10;;;1.20;;
48122;SDS011;33907;47.426;18.906;2023-04-03T10:45:37;3.70;;;1.00;;
48122;SDS011;33907;47.426;18.906;2023-04-03T10:53:56;5.03;;;1.62;;
48122;SDS011;33907;47.426;18.906;2023-04-03T10:56:52;3.17;;;1.15;;
48122;SDS011;33907;47.426;18.906;2023-04-03T10:59:45;3.60;;;1.25;;
48122;SDS011;33907;47.426;18.906;2023-04-03T11:02:22;2.65;;;1.20;;
48122;SDS011;33907;47.426;18.906;2023-04-03T11:04:53;3.95;;;1.20;;
48122;SDS011;33907;47.426;18.906;2023-04-03T11:07:23;3.10;;;1.30;;
48122;SDS011;33907;47.426;18.906;2023-04-03T11:09:55;3.00;;;1.10;;
48122;SDS011;33907;47.426;18.906;2023-04-03T11:12:28;2.80;;;1.12;;
48122;SDS011;33907;47.426;18.906;2023-04-03T11:15:15;3.22;;;1.30;;
48122;SDS011;33907;47.426;18.906;2023-04-03T11:22:50;6.95;;;2.40;;
48122;SDS011;33907;47.426;18.906;2023-04-03T11:25:21;2.67;;;1.37;;
48122;SDS011;33907;47.426;18.906;2023-04-03T11:27:58;3.12;;;1.65;;
48122;SDS011;33907;47.426;18.906;2023-04-03T11:33:23;3.10;;;1.12;;
48122;SDS011;33907;47.426;18.906;2023-04-03T11:36:00;2.53;;;1.20;;
48122;SDS011;33907;47.426;18.906;2023-04-03T11:38:42;2.85;;;1.30;;
48122;SDS011;33907;47.426;18.906;2023-04-03T11:41:11;2.08;;;0.90;;
48122;SDS011;33907;47.426;18.906;2023-04-03T11:44:02;2.40;;;0.90;;
48122;SDS011;33907;47.426;18.906;2023-04-03T12:01:00;2.72;;;1.42;;
48122;SDS011;33907;47.426;18.906;2023-04-03T12:22:09;3.58;;;1.90;;
48122;SDS011;33907;47.426;18.906;2023-04-03T12:24:42;2.72;;;1.60;;
48122;SDS011;33907;47.426;18.906;2023-04-03T12:27:16;3.65;;;1.67;;
48122;SDS011;33907;47.426;18.906;2023-04-03T12:48:50;4.00;;;1.55;;
48122;SDS011;33907;47.426;18.906;2023-04-03T12:51:22;4.20;;;1.80;;
48122;SDS011;33907;47.426;18.906;2023-04-03T12:53:50;3.83;;;1.60;;
48122;SDS011;33907;47.426;18.906;2023-04-03T12:56:26;3.58;;;1.50;;
48122;SDS011;33907;47.426;18.906;2023-04-03T12:59:15;4.40;;;1.52;;
48122;SDS011;33907;47.426;18.906;2023-04-03T13:01:52;3.30;;;1.40;;
48122;SDS011;33907;47.426;18.906;2023-04-03T13:04:21;4.95;;;1.70;;
48122;SDS011;33907;47.426;18.906;2023-04-03T13:06:49;4.20;;;1.90;;
48122;SDS011;33907;47.426;18.906;2023-04-03T13:11:56;3.15;;;1.37;;
48122;SDS011;33907;47.426;18.906;2023-04-03T13:14:25;3.50;;;1.40;;
48122;SDS011;33907;47.426;18.906;2023-04-03T13:16:56;2.85;;;1.15;;
48122;SDS011;33907;47.426;18.906;2023-04-03T13:19:25;3.67;;;1.67;;
48122;SDS011;33907;47.426;18.906;2023-04-03T13:22:01;3.22;;;1.60;;
48122;SDS011;33907;47.426;18.906;2023-04-03T13:24:31;4.95;;;2.37;;
48122;SDS011;33907;47.426;18.906;2023-04-03T13:27:01;2.58;;;1.42;;
48122;SDS011;33907;47.426;18.906;2023-04-03T13:29:34;4.18;;;1.70;;
48122;SDS011;33907;47.426;18.906;2023-04-03T13:32:03;6.05;;;2.40;;
48122;SDS011;33907;47.426;18.906;2023-04-03T13:34:36;16.80;;;10.98;;
48122;SDS011;33907;47.426;18.906;2023-04-03T13:37:21;20.05;;;11.48;;
48122;SDS011;33907;47.426;18.906;2023-04-03T13:43:02;4.10;;;1.92;;
48122;SDS011;33907;47.426;18.906;2023-04-03T13:45:53;4.93;;;2.20;;
48122;SDS011;33907;47.426;18.906;2023-04-03T13:53:47;4.18;;;2.15;;
48122;SDS011;33907;47.426;18.906;2023-04-03T13:56:19;3.83;;;2.03;;
48122;SDS011;33907;47.426;18.906;2023-04-03T13:58:59;5.57;;;2.03;;
48122;SDS011;33907;47.426;18.906;2023-04-03T14:01:52;5.68;;;3.72;;
48122;SDS011;33907;47.426;18.906;2023-04-03T14:07:12;4.62;;;2.53;;
48122;SDS011;33907;47.426;18.906;2023-04-03T14:09:40;7.85;;;3.28;;
48122;SDS011;33907;47.426;18.906;2023-04-03T14:12:11;5.00;;;2.58;;
48122;SDS011;33907;47.426;18.906;2023-04-03T14:14:58;6.93;;;3.17;;
48122;SDS011;33907;47.426;18.906;2023-04-03T14:17:28;5.00;;;2.22;;
48122;SDS011;33907;47.426;18.906;2023-04-03T14:19:56;4.45;;;2.03;;
48122;SDS011;33907;47.426;18.906;2023-04-03T14:22:26;4.37;;;2.50;;
48122;SDS011;33907;47.426;18.906;2023-04-03T14:24:56;6.62;;;2.85;;
48122;SDS011;33907;47.426;18.906;2023-04-03T14:27:29;4.97;;;2.55;;
48122;SDS011;33907;47.426;18.906;2023-04-03T14:32:33;6.82;;;3.47;;
48122;SDS011;33907;47.426;18.906;2023-04-03T14:35:00;5.28;;;2.62;;
48122;SDS011;33907;47.426;18.906;2023-04-03T14:37:29;4.62;;;2.65;;
48122;SDS011;33907;47.426;18.906;2023-04-03T14:39:58;7.18;;;2.45;;
48122;SDS011;33907;47.426;18.906;2023-04-03T14:42:31;4.65;;;2.30;;
48122;SDS011;33907;47.426;18.906;2023-04-03T14:45:03;5.68;;;2.87;;
48122;SDS011;33907;47.426;18.906;2023-04-03T14:47:33;5.93;;;2.65;;
48122;SDS011;33907;47.426;18.906;2023-04-03T14:50:06;7.80;;;2.90;;
48122;SDS011;33907;47.426;18.906;2023-04-03T14:52:35;7.75;;;3.10;;
48122;SDS011;33907;47.426;18.906;2023-04-03T14:55:04;5.30;;;2.85;;
48122;SDS011;33907;47.426;18.906;2023-04-03T14:57:34;6.25;;;2.95;;
48122;SDS011;33907;47.426;18.906;2023-04-03T15:00:03;4.78;;;2.60;;
48122;SDS011;33907;47.426;18.906;2023-04-03T15:02:32;6.50;;;2.47;;
48122;SDS011;33907;47.426;18.906;2023-04-03T15:05:03;6.72;;;2.40;;
48122;SDS011;33907;47.426;18.906;2023-04-03T15:07:34;5.28;;;2.05;;
48122;SDS011;33907;47.426;18.906;2023-04-03T15:10:06;4.22;;;2.37;;
48122;SDS011;33907;47.426;18.906;2023-04-03T15:12:42;4.50;;;2.40;;
48122;SDS011;33907;47.426;18.906;2023-04-03T15:15:10;5.43;;;2.42;;
48122;SDS011;33907;47.426;18.906;2023-04-03T15:17:38;6.82;;;2.78;;
48122;SDS011;33907;47.426;18.906;2023-04-03T15:20:13;5.35;;;2.65;;
48122;SDS011;33907;47.426;18.906;2023-04-03T15:22:45;4.75;;;2.80;;
48122;SDS011;33907;47.426;18.906;2023-04-03T15:25:13;7.53;;;2.58;;
48122;SDS011;33907;47.426;18.906;2023-04-03T15:27:41;5.60;;;2.45;;
48122;SDS011;33907;47.426;18.906;2023-04-03T15:30:16;7.35;;;2.37;;
48122;SDS011;33907;47.426;18.906;2023-04-03T15:32:45;4.78;;;2.45;;
48122;SDS011;33907;47.426;18.906;2023-04-03T15:35:13;5.80;;;2.62;;
48122;SDS011;33907;47.426;18.906;2023-04-03T15:37:41;5.78;;;2.25;;
48122;SDS011;33907;47.426;18.906;2023-04-03T15:40:09;7.95;;;2.92;;
48122;SDS011;33907;47.426;18.906;2023-04-03T15:42:37;4.97;;;2.20;;
48122;SDS011;33907;47.426;18.906;2023-04-03T15:45:04;5.03;;;2.20;;
48122;SDS011;33907;47.426;18.906;2023-04-03T15:47:33;4.70;;;2.20;;
48122;SDS011;33907;47.426;18.906;2023-04-03T15:50:00;5.70;;;2.42;;
48122;SDS011;33907;47.426;18.906;2023-04-03T15:52:28;7.80;;;3.20;;
48122;SDS011;33907;47.426;18.906;2023-04-03T15:54:55;4.75;;;2.17;;
48122;SDS011;33907;47.426;18.906;2023-04-03T15:57:23;5.07;;;2.30;;
48122;SDS011;33907;47.426;18.906;2023-04-03T15:59:53;5.53;;;2.50;;
48122;SDS011;33907;47.426;18.906;2023-04-03T16:02:21;4.28;;;2.08;;
48122;SDS011;33907;47.426;18.906;2023-04-03T16:04:49;4.00;;;2.37;;
48122;SDS011;33907;47.426;18.906;2023-04-03T16:07:17;4.30;;;2.10;;
48122;SDS011;33907;47.426;18.906;2023-04-03T16:09:46;6.95;;;2.22;;
48122;SDS011;33907;47.426;18.906;2023-04-03T16:12:14;5.70;;;2.40;;
48122;SDS011;33907;47.426;18.906;2023-04-03T16:14:41;5.68;;;2.50;;
48122;SDS011;33907;47.426;18.906;2023-04-03T16:17:09;5.10;;;2.30;;
48122;SDS011;33907;47.426;18.906;2023-04-03T16:19:36;7.03;;;2.40;;
48122;SDS011;33907;47.426;18.906;2023-04-03T16:22:04;5.80;;;2.25;;
48122;SDS011;33907;47.426;18.906;2023-04-03T16:24:31;5.62;;;2.28;;
48122;SDS011;33907;47.426;18.906;2023-04-03T16:26:59;6.80;;;2.53;;
48122;SDS011;33907;47.426;18.906;2023-04-03T16:29:27;6.85;;;2.78;;
48122;SDS011;33907;47.426;18.906;2023-04-03T16:31:54;6.22;;;2.45;;
48122;SDS011;33907;47.426;18.906;2023-04-03T16:34:22;5.30;;;2.60;;
48122;SDS011;33907;47.426;18.906;2023-04-03T16:36:50;9.20;;;2.58;;
48122;SDS011;33907;47.426;18.906;2023-04-03T16:39:19;5.35;;;2.25;;
48122;SDS011;33907;47.426;18.906;2023-04-03T16:41:47;6.05;;;2.50;;
48122;SDS011;33907;47.426;18.906;2023-04-03T16:44:14;10.50;;;3.42;;
48122;SDS011;33907;47.426;18.906;2023-04-03T16:46:42;6.37;;;2.87;;
48122;SDS011;33907;47.426;18.906;2023-04-03T16:49:11;6.20;;;2.37;;
48122;SDS011;33907;47.426;18.906;2023-04-03T16:51:39;7.25;;;3.08;;
48122;SDS011;33907;47.426;18.906;2023-04-03T16:54:07;7.70;;;2.47;;
48122;SDS011;33907;47.426;18.906;2023-04-03T16:56:37;11.85;;;5.12;;
48122;SDS011;33907;47.426;18.906;2023-04-03T16:59:05;13.98;;;6.85;;
48122;SDS011;33907;47.426;18.906;2023-04-03T17:01:33;7.25;;;3.37;;
48122;SDS011;33907;47.426;18.906;2023-04-03T17:04:01;7.40;;;3.97;;
48122;SDS011;33907;47.426;18.906;2023-04-03T17:06:28;8.98;;;3.67;;
48122;SDS011;33907;47.426;18.906;2023-04-03T17:08:56;9.93;;;5.15;;
48122;SDS011;33907;47.426;18.906;2023-04-03T17:11:26;8.13;;;4.18;;
48122;SDS011;33907;47.426;18.906;2023-04-03T17:13:55;7.87;;;3.42;;
48122;SDS011;33907;47.426;18.906;2023-04-03T17:16:24;8.18;;;3.40;;